createdAt,value
2022-10-29T00:00:55.551Z,24.57
2022-10-29T00:03:23.307Z,18.07
2022-10-29T00:06:04.565Z,25.03
2022-10-29T00:08:32.680Z,20.13
2022-10-29T00:11:13.152Z,18.70
2022-10-29T00:13:40.133Z,18.67
2022-10-29T00:16:12.405Z,18.83
2022-10-29T00:18:39.180Z,24.43
2022-10-29T00:21:08.311Z,27.47
2022-10-29T00:23:35.023Z,25.77
2022-10-29T00:26:02.114Z,20.03
2022-10-29T00:28:29.189Z,17.80
2022-10-29T00:30:55.858Z,14.90
2022-10-29T00:33:22.840Z,31.07
2022-10-29T00:35:56.752Z,18.40
2022-10-29T00:38:23.636Z,19.63
2022-10-29T00:40:50.368Z,25.77
2022-10-29T00:43:19.485Z,17.40
2022-10-29T00:45:55.025Z,22.23
2022-10-29T00:48:22.768Z,22.50
2022-10-29T00:50:49.494Z,22.70
2022-10-29T00:53:20.798Z,27.33
2022-10-29T00:55:47.401Z,26.23
2022-10-29T00:58:14.269Z,20.30
2022-10-29T01:00:41.040Z,19.30
2022-10-29T01:03:07.675Z,22.23
2022-10-29T01:05:34.904Z,21.53
2022-10-29T01:08:02.060Z,24.20
2022-10-29T01:10:48.239Z,26.67
2022-10-29T01:13:49.070Z,23.80
2022-10-29T01:16:29.302Z,24.63
2022-10-29T01:19:21.874Z,21.57
2022-10-29T01:21:52.923Z,21.93
2022-10-29T01:24:57.191Z,14.77
2022-10-29T01:27:36.481Z,23.07
2022-10-29T01:30:12.805Z,27.83
2022-10-29T01:32:51.430Z,25.77
2022-10-29T01:35:30.111Z,22.40
2022-10-29T01:38:34.770Z,27.60
2022-10-29T01:41:09.271Z,22.73
2022-10-29T01:43:44.754Z,26.13
2022-10-29T01:46:20.493Z,29.60
2022-10-29T01:48:49.110Z,21.57
2022-10-29T01:51:22.376Z,25.20
2022-10-29T01:53:49.540Z,31.53
2022-10-29T01:56:16.229Z,28.03
2022-10-29T01:58:47.071Z,26.50
2022-10-29T02:01:39.652Z,17.03
2022-10-29T02:04:21.362Z,19.10
2022-10-29T02:07:05.126Z,25.20
2022-10-29T02:09:58.020Z,28.00
2022-10-29T02:12:30.609Z,25.23
2022-10-29T02:15:03.425Z,34.50
2022-10-29T02:17:34.462Z,28.90
2022-10-29T02:20:11.048Z,31.67
2022-10-29T02:22:38.195Z,22.97
2022-10-29T02:25:06.271Z,24.20
2022-10-29T02:27:32.949Z,27.53
2022-10-29T02:29:59.546Z,27.00
2022-10-29T02:32:26.341Z,25.60
2022-10-29T02:34:52.950Z,24.33
2022-10-29T02:37:19.524Z,22.97
2022-10-29T02:39:46.096Z,24.00
2022-10-29T02:42:12.696Z,30.83
2022-10-29T02:44:39.330Z,33.93
2022-10-29T02:47:05.969Z,31.03
2022-10-29T02:49:32.562Z,24.10
2022-10-29T02:51:59.246Z,24.50
2022-10-29T02:54:25.792Z,23.37
2022-10-29T02:56:52.473Z,29.30
2022-10-29T02:59:19.078Z,28.17
2022-10-29T03:01:45.731Z,24.40
2022-10-29T03:04:12.580Z,28.23
2022-10-29T03:06:39.128Z,30.73
2022-10-29T03:09:06.076Z,34.33
2022-10-29T03:11:32.669Z,26.30
2022-10-29T03:13:59.215Z,33.47
2022-10-29T03:16:25.924Z,26.63
2022-10-29T03:18:52.519Z,30.23
2022-10-29T03:21:19.081Z,34.57
2022-10-29T03:23:45.681Z,21.80
2022-10-29T03:26:12.310Z,32.77
2022-10-29T03:28:38.923Z,33.27
2022-10-29T03:31:05.578Z,29.53
2022-10-29T03:33:32.157Z,30.20
2022-10-29T03:36:07.679Z,34.20
2022-10-29T03:38:34.496Z,28.13
2022-10-29T03:41:01.429Z,26.63
2022-10-29T03:43:27.974Z,24.90
2022-10-29T03:45:55.690Z,28.20
2022-10-29T03:48:23.420Z,24.10
2022-10-29T03:51:01.451Z,31.00
2022-10-29T03:53:29.151Z,32.63
2022-10-29T03:55:56.793Z,29.13
2022-10-29T03:58:24.152Z,33.33
2022-10-29T04:01:04.575Z,27.17
2022-10-29T04:03:32.869Z,35.47
2022-10-29T04:06:01.184Z,29.70
2022-10-29T04:08:28.006Z,33.73
2022-10-29T04:10:54.600Z,38.23
2022-10-29T04:13:21.219Z,28.13
2022-10-29T04:15:47.836Z,36.80
2022-10-29T04:18:14.473Z,30.43
2022-10-29T04:21:05.853Z,32.23
2022-10-29T04:29:02.409Z,34.20
2022-10-29T04:31:28.962Z,28.10
2022-10-29T04:33:55.787Z,37.77
2022-10-29T04:36:22.369Z,27.97
2022-10-29T04:38:52.790Z,23.00
2022-10-29T04:41:19.368Z,31.53
2022-10-29T04:43:45.986Z,26.30
2022-10-29T04:46:12.635Z,28.67
2022-10-29T04:48:39.444Z,36.37
2022-10-29T04:51:06.042Z,28.87
2022-10-29T04:53:32.604Z,36.70
2022-10-29T04:56:01.333Z,30.40
2022-10-29T04:58:28.093Z,29.60
2022-10-29T05:00:54.814Z,40.77
2022-10-29T05:03:21.436Z,38.80
2022-10-29T05:05:47.977Z,28.33
2022-10-29T05:08:15.345Z,24.73
2022-10-29T05:10:42.042Z,29.57
2022-10-29T05:13:11.410Z,36.90
2022-10-29T05:15:38.567Z,26.93
2022-10-29T05:18:06.226Z,31.40
2022-10-29T05:20:33.153Z,34.30
2022-10-29T05:23:04.925Z,25.23
2022-10-29T05:25:35.567Z,42.10
2022-10-29T05:28:07.675Z,29.43
2022-10-29T05:30:35.557Z,33.67
2022-10-29T05:33:02.183Z,40.97
2022-10-29T05:35:28.758Z,41.63
2022-10-29T05:37:56.235Z,39.80
2022-10-29T05:40:23.623Z,39.87
2022-10-29T05:42:50.417Z,39.43
2022-10-29T05:45:17.059Z,40.37
2022-10-29T05:47:43.820Z,40.47
2022-10-29T05:50:11.642Z,35.70
2022-10-29T05:52:38.651Z,39.00
2022-10-29T05:55:06.376Z,42.63
2022-10-29T05:57:33.217Z,35.37
2022-10-29T05:59:59.760Z,38.03
2022-10-29T06:02:26.506Z,33.03
2022-10-29T06:04:53.167Z,39.87
2022-10-29T06:07:19.705Z,29.03
2022-10-29T06:09:46.286Z,25.90
2022-10-29T06:12:12.819Z,28.57
2022-10-29T06:14:39.396Z,22.83
2022-10-29T06:17:05.997Z,34.47
2022-10-29T06:19:32.591Z,27.63
2022-10-29T06:22:00.471Z,33.40
2022-10-29T06:24:27.613Z,35.60
2022-10-29T06:26:54.600Z,33.90
2022-10-29T06:29:21.224Z,37.57
2022-10-29T06:31:47.792Z,33.90
2022-10-29T06:34:14.851Z,32.23
2022-10-29T06:36:41.533Z,33.47
2022-10-29T06:39:08.095Z,37.37
2022-10-29T06:41:34.682Z,39.40
2022-10-29T06:44:01.421Z,47.00
2022-10-29T06:46:27.977Z,33.20
2022-10-29T06:48:54.648Z,44.17
2022-10-29T06:53:54.774Z,38.23
2022-10-29T06:56:21.709Z,36.43
2022-10-29T06:58:48.333Z,29.67
2022-10-29T07:01:14.946Z,32.37
2022-10-29T07:03:41.553Z,35.87
2022-10-29T07:06:08.086Z,27.60
2022-10-29T07:08:34.705Z,32.27
2022-10-29T07:11:02.830Z,32.33
2022-10-29T07:13:29.456Z,33.43
2022-10-29T07:15:55.987Z,33.20
2022-10-29T07:18:22.557Z,33.07
2022-10-29T07:20:49.320Z,30.50
2022-10-29T07:23:16.017Z,31.33
2022-10-29T07:25:42.975Z,32.07
2022-10-29T07:28:18.020Z,29.80
2022-10-29T07:30:45.266Z,33.73
2022-10-29T07:33:11.933Z,27.33
2022-10-29T07:35:38.921Z,36.57
2022-10-29T07:38:10.752Z,33.80
2022-10-29T07:40:38.959Z,36.13
2022-10-29T07:43:05.589Z,27.80
2022-10-29T07:45:33.128Z,30.33
2022-10-29T07:48:04.408Z,29.63
2022-10-29T07:50:32.195Z,32.60
2022-10-29T07:53:02.630Z,28.00
2022-10-29T07:58:01.340Z,33.10
2022-10-29T08:00:33.579Z,28.37
2022-10-29T08:03:00.228Z,25.23
2022-10-29T08:05:28.332Z,29.40
2022-10-29T08:07:55.644Z,29.43
2022-10-29T08:10:23.773Z,35.60
2022-10-29T08:12:51.406Z,27.13
2022-10-29T08:15:19.101Z,25.93
2022-10-29T08:17:46.480Z,30.33
2022-10-29T08:20:13.647Z,34.33
2022-10-29T08:22:40.179Z,32.10
2022-10-29T08:25:07.015Z,34.03
2022-10-29T08:27:33.620Z,27.60
2022-10-29T08:30:00.186Z,34.03
2022-10-29T08:32:26.786Z,33.23
2022-10-29T08:34:53.589Z,34.53
2022-10-29T08:37:20.164Z,28.73
2022-10-29T08:39:46.719Z,36.20
2022-10-29T08:42:30.194Z,28.40
2022-10-29T08:45:02.570Z,24.00
2022-10-29T08:47:33.991Z,39.23
2022-10-29T08:50:05.907Z,26.23
2022-10-29T08:52:36.983Z,29.00
2022-10-29T08:55:16.736Z,32.87
2022-10-29T08:57:53.358Z,23.10
2022-10-29T09:00:22.722Z,26.90
2022-10-29T09:03:00.044Z,24.93
2022-10-29T09:05:32.838Z,29.43
2022-10-29T09:08:18.780Z,32.13
2022-10-29T09:10:53.939Z,25.33
2022-10-29T09:13:31.254Z,24.60
2022-10-29T09:16:10.681Z,25.93
2022-10-29T09:18:58.928Z,21.23
2022-10-29T09:21:43.883Z,22.70
2022-10-29T09:24:25.517Z,28.70
2022-10-29T09:27:08.134Z,30.97
2022-10-29T09:30:18.861Z,25.90
2022-10-29T09:32:59.461Z,24.53
2022-10-29T09:35:47.250Z,17.40
2022-10-29T09:38:24.549Z,27.57
2022-10-29T09:40:51.378Z,22.90
2022-10-29T09:44:03.260Z,23.77
2022-10-29T09:46:45.210Z,26.40
2022-10-29T09:49:49.293Z,24.87
2022-10-29T09:52:19.674Z,26.40
2022-10-29T09:54:46.610Z,27.70
2022-10-29T09:57:19.849Z,26.67
2022-10-29T09:59:51.519Z,25.13
2022-10-29T10:02:27.041Z,20.40
2022-10-29T10:05:02.132Z,24.33
2022-10-29T10:07:29.403Z,28.53
2022-10-29T10:10:00.010Z,20.40
2022-10-29T10:12:28.520Z,27.80
2022-10-29T10:15:31.576Z,20.80
2022-10-29T10:18:18.721Z,25.33
2022-10-29T10:21:04.799Z,22.93
2022-10-29T10:23:49.568Z,22.37
2022-10-29T10:26:34.607Z,21.47
2022-10-29T10:29:22.785Z,19.23
2022-10-29T10:31:50.065Z,40.97
2022-10-29T10:34:18.256Z,18.40
2022-10-29T10:36:49.258Z,19.77
2022-10-29T10:39:27.747Z,23.63
2022-10-29T10:41:56.241Z,20.20
2022-10-29T10:44:23.510Z,19.80
2022-10-29T10:46:52.259Z,20.57
2022-10-29T10:49:29.358Z,19.47
2022-10-29T10:51:56.690Z,19.70
2022-10-29T10:54:28.613Z,18.80
2022-10-29T10:57:03.508Z,16.03
2022-10-29T10:59:48.343Z,19.50
2022-10-29T11:02:24.552Z,18.23
2022-10-29T11:05:00.840Z,17.27
2022-10-29T11:07:34.398Z,16.80
2022-10-29T11:10:03.251Z,24.27
2022-10-29T11:12:40.655Z,23.20
2022-10-29T11:15:15.969Z,16.80
2022-10-29T11:17:55.236Z,16.70
2022-10-29T11:20:32.888Z,13.47
2022-10-29T11:23:23.324Z,18.93
2022-10-29T11:25:58.456Z,22.00
2022-10-29T11:28:48.934Z,20.80
2022-10-29T11:31:29.471Z,21.60
2022-10-29T11:34:03.445Z,24.40
2022-10-29T11:36:40.532Z,15.00
2022-10-29T11:39:19.537Z,22.20
2022-10-29T11:41:57.962Z,17.07
2022-10-29T11:44:24.785Z,22.03
2022-10-29T11:47:28.988Z,19.47
2022-10-29T11:50:14.195Z,19.93
2022-10-29T11:52:40.725Z,16.27
2022-10-29T11:55:20.318Z,17.47
2022-10-29T11:57:54.746Z,18.93
2022-10-29T12:00:24.675Z,15.67
2022-10-29T12:03:13.170Z,26.47
2022-10-29T12:05:57.894Z,22.10
2022-10-29T12:08:42.413Z,22.60
2022-10-29T12:11:18.165Z,15.50
2022-10-29T12:13:50.885Z,19.73
2022-10-29T12:16:59.026Z,21.23
2022-10-29T12:19:40.430Z,16.30
2022-10-29T12:22:31.503Z,15.50
2022-10-29T12:25:01.093Z,19.00
2022-10-29T12:27:33.592Z,22.73
2022-10-29T12:30:08.209Z,16.30
2022-10-29T12:32:46.841Z,13.93
2022-10-29T12:35:51.197Z,21.60
2022-10-29T12:38:40.878Z,17.07
2022-10-29T12:41:20.383Z,11.67
2022-10-29T12:43:47.360Z,20.13
2022-10-29T12:46:23.073Z,17.20
2022-10-29T12:49:02.657Z,15.83
2022-10-29T12:51:48.128Z,13.57
2022-10-29T12:54:23.462Z,15.73
2022-10-29T12:56:50.540Z,20.27
2022-10-29T12:59:23.459Z,22.57
2022-10-29T13:02:11.028Z,20.10
2022-10-29T13:04:37.587Z,17.27
2022-10-29T13:07:08.064Z,16.47
2022-10-29T13:09:36.181Z,11.30
2022-10-29T13:12:11.675Z,18.70
2022-10-29T13:14:48.584Z,17.20
2022-10-29T13:17:36.172Z,15.47
2022-10-29T13:20:19.627Z,18.03
2022-10-29T13:22:57.280Z,20.33
2022-10-29T13:25:42.248Z,15.80
2022-10-29T13:28:08.780Z,11.50
2022-10-29T13:30:37.118Z,11.93
2022-10-29T13:33:18.884Z,21.73
2022-10-29T13:35:52.612Z,10.97
2022-10-29T13:38:19.569Z,14.27
2022-10-29T13:41:09.509Z,19.37
2022-10-29T13:43:36.341Z,20.30
2022-10-29T13:46:15.941Z,10.37
2022-10-29T13:48:43.951Z,17.53
2022-10-29T13:51:18.095Z,18.40
2022-10-29T13:53:55.739Z,16.00
2022-10-29T13:56:46.861Z,13.07
2022-10-29T13:59:36.609Z,14.23
2022-10-29T14:02:30.622Z,13.17
2022-10-29T14:05:06.680Z,11.80
2022-10-29T14:07:53.312Z,18.90
2022-10-29T14:10:43.276Z,24.07
2022-10-29T14:13:32.861Z,11.57
2022-10-29T14:16:07.448Z,10.13
2022-10-29T14:18:34.157Z,12.03
2022-10-29T14:21:02.930Z,19.60
2022-10-29T14:23:30.766Z,14.87
2022-10-29T14:26:00.134Z,15.53
2022-10-29T14:28:33.516Z,16.90
2022-10-29T14:31:11.732Z,10.77
2022-10-29T14:33:40.405Z,11.80
2022-10-29T14:36:09.906Z,15.40
2022-10-29T14:38:59.024Z,16.67
2022-10-29T14:41:26.562Z,11.23
2022-10-29T14:44:00.981Z,17.27
2022-10-29T14:46:29.821Z,18.30
2022-10-29T14:49:03.603Z,17.60
2022-10-29T14:51:38.037Z,16.60
2022-10-29T14:54:05.706Z,17.73
2022-10-29T14:56:37.098Z,18.03
2022-10-29T14:59:19.311Z,19.33
2022-10-29T15:02:05.469Z,18.93
2022-10-29T15:04:56.359Z,11.20
2022-10-29T15:07:23.503Z,15.67
2022-10-29T15:09:51.328Z,9.23
2022-10-29T15:12:22.001Z,17.80
2022-10-29T15:14:52.949Z,13.03
2022-10-29T15:17:25.530Z,14.77
2022-10-29T15:19:55.073Z,16.60
2022-10-29T15:22:33.217Z,12.87
2022-10-29T15:25:02.825Z,17.03
2022-10-29T15:27:29.685Z,10.63
2022-10-29T15:29:56.652Z,15.30
2022-10-29T15:32:25.130Z,17.30
2022-10-29T15:34:56.190Z,16.77
2022-10-29T15:37:27.178Z,12.30
2022-10-29T15:39:56.777Z,14.00
2022-10-29T15:42:25.921Z,13.17
2022-10-29T15:45:08.006Z,15.40
2022-10-29T15:47:36.241Z,12.53
2022-10-29T15:50:07.031Z,14.43
2022-10-29T15:52:39.365Z,13.37
2022-10-29T15:55:12.602Z,23.60
2022-10-29T15:57:39.257Z,23.73
2022-10-29T16:00:07.348Z,12.30
2022-10-29T16:02:35.333Z,11.60
2022-10-29T16:05:01.926Z,15.73
2022-10-29T16:07:28.609Z,14.40
2022-10-29T16:09:57.181Z,17.13
2022-10-29T16:12:23.871Z,13.57
2022-10-29T16:14:50.439Z,23.03
2022-10-29T16:17:23.944Z,16.93
2022-10-29T16:19:50.530Z,16.70
2022-10-29T16:22:31.580Z,18.10
2022-10-29T16:24:58.348Z,12.40
2022-10-29T16:27:24.962Z,21.03
2022-10-29T16:29:51.690Z,20.67
2022-10-29T16:32:19.980Z,16.57
2022-10-29T16:34:46.830Z,22.23
2022-10-29T16:37:15.503Z,16.90
2022-10-29T16:39:42.493Z,20.30
2022-10-29T16:42:35.387Z,19.33
2022-10-29T16:45:02.215Z,19.23
2022-10-29T16:47:28.827Z,17.67
2022-10-29T16:49:55.509Z,10.60
2022-10-29T16:52:24.224Z,16.30
2022-10-29T16:54:55.239Z,15.50
2022-10-29T16:57:21.961Z,24.00
2022-10-29T16:59:48.546Z,18.07
2022-10-29T17:02:15.130Z,15.63
2022-10-29T17:04:41.879Z,20.63
2022-10-29T17:07:08.534Z,18.70
2022-10-29T17:09:36.947Z,14.03
2022-10-29T17:12:03.815Z,14.70
2022-10-29T17:14:30.489Z,21.80
2022-10-29T17:16:57.354Z,30.63
2022-10-29T17:19:24.146Z,19.70
2022-10-29T17:21:50.972Z,18.80
2022-10-29T17:24:17.566Z,15.70
2022-10-29T17:26:44.214Z,16.57
2022-10-29T17:29:10.972Z,14.60
2022-10-29T17:31:37.696Z,13.80
2022-10-29T17:34:04.427Z,14.67
2022-10-29T17:36:32.641Z,11.73
2022-10-29T17:38:59.280Z,27.20
2022-10-29T17:41:25.888Z,13.40
2022-10-29T17:43:52.503Z,18.43
2022-10-29T17:46:19.078Z,21.80
2022-10-29T17:48:45.712Z,14.20
2022-10-29T17:51:12.354Z,14.50
2022-10-29T17:53:39.239Z,24.13
2022-10-29T17:56:06.203Z,15.83
2022-10-29T17:58:33.014Z,18.23
2022-10-29T18:01:07.376Z,15.30
2022-10-29T18:03:34.280Z,19.90
2022-10-29T18:06:02.118Z,12.53
2022-10-29T18:08:29.491Z,17.77
2022-10-29T18:11:20.245Z,15.70
2022-10-29T18:13:47.803Z,21.43
2022-10-29T18:16:19.921Z,16.33
2022-10-29T18:19:01.215Z,22.00
2022-10-29T18:21:29.742Z,18.67
2022-10-29T18:23:56.743Z,24.57
2022-10-29T18:26:31.328Z,16.10
2022-10-29T18:28:59.558Z,17.87
2022-10-29T18:31:30.111Z,17.00
2022-10-29T18:33:58.325Z,16.50
2022-10-29T18:36:24.928Z,13.90
2022-10-29T18:38:52.898Z,15.40
2022-10-29T18:41:19.805Z,15.20
2022-10-29T18:43:46.745Z,12.40
2022-10-29T18:46:13.633Z,17.23
2022-10-29T18:48:42.238Z,20.00
2022-10-29T18:51:12.277Z,20.27
2022-10-29T18:53:39.508Z,15.47
2022-10-29T18:56:14.889Z,22.57
2022-10-29T18:58:42.070Z,17.67
2022-10-29T19:01:17.941Z,16.53
2022-10-29T19:03:49.396Z,19.00
2022-10-29T19:06:16.242Z,19.30
2022-10-29T19:08:44.133Z,17.97
2022-10-29T19:11:16.658Z,17.00
2022-10-29T19:13:43.394Z,22.83
2022-10-29T19:16:12.932Z,22.43
2022-10-29T19:18:40.743Z,20.70
2022-10-29T19:21:08.819Z,14.60
2022-10-29T19:23:35.853Z,18.90
2022-10-29T19:26:10.749Z,15.27
2022-10-29T19:28:37.823Z,18.33
2022-10-29T19:31:24.205Z,22.33
2022-10-29T19:33:52.327Z,17.90
2022-10-29T19:36:19.590Z,22.67
2022-10-29T19:38:46.913Z,15.33
2022-10-29T19:41:14.177Z,21.17
2022-10-29T19:43:40.867Z,18.03
2022-10-29T19:46:12.813Z,17.00
2022-10-29T19:48:40.137Z,25.33
2022-10-29T19:51:07.464Z,15.50
2022-10-29T19:53:34.129Z,17.13
2022-10-29T19:56:00.670Z,17.80
2022-10-29T19:58:27.793Z,15.20
2022-10-29T20:00:55.018Z,17.30
2022-10-29T20:03:21.729Z,16.93
2022-10-29T20:05:49.375Z,15.07
2022-10-29T20:08:16.480Z,22.23
2022-10-29T20:10:43.546Z,17.93
2022-10-29T20:13:10.590Z,18.30
2022-10-29T20:15:39.105Z,21.90
2022-10-29T20:18:05.894Z,25.27
2022-10-29T20:20:34.743Z,19.83
2022-10-29T20:23:01.704Z,20.03
2022-10-29T20:25:28.520Z,20.53
2022-10-29T20:27:55.098Z,17.50
2022-10-29T20:30:22.117Z,20.67
2022-10-29T20:32:49.098Z,18.30
2022-10-29T20:35:16.672Z,19.57
2022-10-29T20:37:43.209Z,21.53
2022-10-29T20:40:10.627Z,23.13
2022-10-29T20:42:37.215Z,12.30
2022-10-29T20:45:04.481Z,15.53
2022-10-29T20:47:31.118Z,18.40
2022-10-29T20:49:57.701Z,19.00
2022-10-29T20:52:24.388Z,21.83
2022-10-29T20:54:50.978Z,21.97
2022-10-29T20:57:17.557Z,16.00
2022-10-29T20:59:45.308Z,15.77
2022-10-29T21:02:12.112Z,26.00
2022-10-29T21:04:39.095Z,14.67
2022-10-29T21:07:07.594Z,17.13
2022-10-29T21:09:34.342Z,15.20
2022-10-29T21:12:00.933Z,21.43
2022-10-29T21:14:29.576Z,17.33
2022-10-29T21:16:56.416Z,14.00
2022-10-29T21:19:23.124Z,17.70
2022-10-29T21:21:49.723Z,20.20
2022-10-29T21:24:17.770Z,20.50
2022-10-29T21:26:44.338Z,13.63
2022-10-29T21:29:10.930Z,21.83
2022-10-29T21:31:38.397Z,13.63
2022-10-29T21:34:04.938Z,25.40
2022-10-29T21:36:31.498Z,22.03
2022-10-29T21:38:58.085Z,12.27
2022-10-29T21:41:26.811Z,15.37
2022-10-29T21:43:55.641Z,19.13
2022-10-29T21:46:22.262Z,15.60
2022-10-29T21:48:48.907Z,19.73
2022-10-29T21:51:17.126Z,12.97
2022-10-29T21:53:43.718Z,18.80
2022-10-29T21:56:12.099Z,16.07
2022-10-29T21:58:38.714Z,15.10
2022-10-29T22:01:10.948Z,14.20
2022-10-29T22:03:38.879Z,13.87
2022-10-29T22:06:07.299Z,31.17
2022-10-29T22:08:34.845Z,20.97
2022-10-29T22:11:02.071Z,15.03
2022-10-29T22:13:29.471Z,20.73
2022-10-29T22:15:56.214Z,19.43
2022-10-29T22:18:23.327Z,15.90
2022-10-29T22:20:51.042Z,11.33
2022-10-29T22:23:17.754Z,16.50
2022-10-29T22:25:50.624Z,17.00
2022-10-29T22:28:17.241Z,17.03
2022-10-29T22:30:43.826Z,19.80
2022-10-29T22:33:10.435Z,14.10
2022-10-29T22:35:37.061Z,14.97
2022-10-29T22:38:03.620Z,18.93
2022-10-29T22:40:30.159Z,17.13
2022-10-29T22:42:57.045Z,14.53
2022-10-29T22:45:23.931Z,19.67
2022-10-29T22:47:50.489Z,16.43
2022-10-29T22:50:17.042Z,17.13
2022-10-29T22:52:43.632Z,16.40
2022-10-29T22:55:10.250Z,15.17
2022-10-29T22:57:36.843Z,16.33
2022-10-29T23:00:03.753Z,15.80
2022-10-29T23:02:31.493Z,19.93
2022-10-29T23:04:58.165Z,20.27
2022-10-29T23:07:24.824Z,18.87
2022-10-29T23:09:51.467Z,15.20
2022-10-29T23:12:18.048Z,19.83
2022-10-29T23:14:44.649Z,19.33
2022-10-29T23:17:11.224Z,11.63
2022-10-29T23:19:37.815Z,20.37
2022-10-29T23:22:04.416Z,14.20
2022-10-29T23:24:31.013Z,19.67
2022-10-29T23:26:57.572Z,14.60
2022-10-29T23:29:24.154Z,15.20
2022-10-29T23:31:50.703Z,11.60
2022-10-29T23:34:17.291Z,17.33
2022-10-29T23:36:43.951Z,20.37
2022-10-29T23:39:11.505Z,19.47
2022-10-29T23:41:38.058Z,13.73
2022-10-29T23:44:04.905Z,20.07
2022-10-29T23:46:31.481Z,15.13
2022-10-29T23:48:58.107Z,11.30
2022-10-29T23:51:26.869Z,17.73
2022-10-29T23:53:56.608Z,20.30
2022-10-29T23:56:24.785Z,14.40
2022-10-29T23:58:51.364Z,12.80
